createdAt,value
2023-04-15T00:02:43.486Z,1.80
2023-04-15T00:07:47.362Z,2.30
2023-04-15T00:12:49.725Z,2.33
2023-04-15T00:17:52.551Z,2.70
2023-04-15T00:22:55.029Z,2.50
2023-04-15T00:27:57.293Z,3.45
2023-04-15T00:32:59.738Z,2.20
2023-04-15T00:38:02.232Z,2.65
2023-04-15T00:43:04.685Z,2.95
2023-04-15T00:48:07.425Z,3.55
2023-04-15T00:53:09.824Z,4.22
2023-04-15T00:58:13.876Z,2.72
2023-04-15T01:03:17.482Z,2.50
2023-04-15T01:08:20.116Z,2.65
2023-04-15T01:13:24.384Z,2.67
2023-04-15T01:18:27.580Z,2.10
2023-04-15T01:23:30.065Z,2.75
2023-04-15T01:28:33.299Z,2.75
2023-04-15T01:33:35.834Z,2.15
2023-04-15T01:38:58.007Z,2.13
2023-04-15T01:44:00.462Z,1.88
2023-04-15T01:49:04.217Z,1.73
2023-04-15T01:54:09.194Z,1.83
2023-04-15T01:59:12.758Z,2.35
2023-04-15T02:04:19.090Z,2.58
2023-04-15T02:09:22.518Z,2.33
2023-04-15T02:14:26.201Z,2.45
2023-04-15T02:19:31.517Z,2.55
2023-04-15T02:24:35.318Z,2.50
2023-04-15T02:29:39.808Z,1.77
2023-04-15T02:34:44.770Z,1.70
2023-04-15T02:39:48.410Z,2.53
2023-04-15T02:44:52.447Z,2.25
2023-04-15T02:49:56.224Z,3.38
2023-04-15T02:55:02.776Z,2.83
2023-04-15T03:00:09.915Z,2.58
2023-04-15T03:05:15.811Z,2.83
2023-04-15T03:10:25.821Z,2.83
2023-04-15T03:15:29.472Z,2.63
2023-04-15T03:20:33.133Z,3.10
2023-04-15T03:25:37.790Z,2.25
2023-04-15T03:30:43.696Z,2.33
2023-04-15T03:35:47.618Z,2.15
2023-04-15T03:40:51.230Z,2.22
2023-04-15T03:45:54.791Z,1.90
2023-04-15T03:50:58.566Z,2.38
2023-04-15T03:56:02.647Z,1.63
2023-04-15T04:01:06.361Z,2.03
2023-04-15T04:06:10.762Z,2.13
2023-04-15T04:11:14.351Z,2.22
2023-04-15T04:16:18.058Z,2.00
2023-04-15T04:21:21.956Z,1.85
2023-04-15T04:26:25.489Z,1.42
2023-04-15T04:31:29.412Z,1.05
2023-04-15T04:36:33.051Z,1.23
2023-04-15T04:41:36.574Z,1.30
2023-04-15T04:46:40.167Z,1.25
2023-04-15T04:51:43.995Z,2.17
2023-04-15T04:56:47.625Z,1.88
2023-04-15T05:01:51.670Z,1.95
2023-04-15T05:06:55.232Z,2.15
2023-04-15T05:11:58.844Z,2.05
2023-04-15T05:17:02.346Z,1.73
2023-04-15T05:22:06.495Z,1.10
2023-04-15T05:27:11.883Z,1.52
2023-04-15T05:32:15.710Z,1.50
2023-04-15T05:37:21.232Z,1.58
2023-04-15T05:42:24.836Z,1.60
2023-04-15T05:47:28.464Z,1.65
2023-04-15T05:52:32.729Z,1.80
2023-04-15T05:57:36.939Z,2.20
2023-04-15T06:02:40.693Z,2.00
2023-04-15T06:07:46.130Z,2.05
2023-04-15T06:12:53.496Z,2.15
2023-04-15T06:17:57.337Z,1.70
2023-04-15T06:23:01.395Z,1.67
2023-04-15T06:28:05.148Z,1.65
2023-04-15T06:33:09.011Z,1.60
2023-04-15T06:38:12.568Z,1.73
2023-04-15T06:43:16.056Z,1.63
2023-04-15T06:48:19.598Z,1.88
2023-04-15T06:53:23.257Z,1.98
2023-04-15T06:58:26.782Z,2.40
2023-04-15T07:03:32.555Z,2.08
2023-04-15T07:08:36.375Z,2.42
2023-04-15T07:13:39.978Z,1.75
2023-04-15T07:18:43.803Z,2.40
2023-04-15T07:23:47.689Z,1.50
2023-04-15T07:28:51.823Z,2.03
2023-04-15T07:33:55.627Z,1.75
2023-04-15T07:38:59.535Z,2.67
2023-04-15T07:44:03.444Z,2.15
2023-04-15T07:49:07.810Z,2.72
2023-04-15T07:54:11.898Z,2.13
2023-04-15T07:59:18.202Z,2.30
2023-04-15T08:04:21.963Z,2.15
2023-04-15T08:09:25.664Z,2.58
2023-04-15T08:14:29.720Z,1.67
2023-04-15T08:19:33.448Z,1.98
2023-04-15T08:24:37.041Z,2.50
2023-04-15T08:29:42.769Z,1.73
2023-04-15T08:34:46.332Z,1.95
2023-04-15T08:39:50.299Z,1.83
2023-04-15T08:44:54.082Z,1.92
2023-04-15T08:49:58.875Z,2.25
2023-04-15T08:55:03.727Z,2.10
2023-04-15T09:00:07.937Z,2.47
2023-04-15T09:05:11.459Z,2.20
2023-04-15T09:10:14.977Z,2.22
2023-04-15T09:15:19.234Z,2.22
2023-04-15T09:20:23.456Z,2.95
2023-04-15T09:25:28.733Z,2.38
2023-04-15T09:30:32.357Z,2.28
2023-04-15T09:35:37.111Z,2.05
2023-04-15T09:40:43.688Z,2.97
2023-04-15T09:45:52.291Z,2.55
2023-04-15T09:50:59.353Z,2.47
2023-04-15T09:56:03.810Z,2.45
2023-04-15T10:01:09.495Z,2.20
2023-04-15T10:06:13.650Z,2.60
2023-04-15T10:16:23.471Z,2.20
2023-04-15T10:21:28.799Z,2.70
2023-04-15T10:26:32.681Z,2.05
2023-04-15T10:31:38.606Z,2.35
2023-04-15T10:36:42.308Z,2.22
2023-04-15T10:41:46.032Z,2.00
2023-04-15T10:46:52.164Z,2.35
2023-04-15T10:52:00.162Z,2.30
2023-04-15T10:57:06.891Z,2.25
2023-04-15T11:02:14.863Z,2.30
2023-04-15T11:07:38.831Z,2.30
2023-04-15T11:12:42.353Z,1.73
2023-04-15T11:17:46.641Z,1.70
2023-04-15T11:23:13.809Z,1.75
2023-04-15T11:28:18.342Z,2.05
2023-04-15T11:33:22.677Z,1.85
2023-04-15T11:38:26.354Z,1.67
2023-04-15T11:43:32.384Z,2.35
2023-04-15T11:48:37.211Z,1.77
2023-04-15T11:53:42.854Z,2.22
2023-04-15T11:58:46.683Z,1.80
2023-04-15T12:03:52.663Z,1.42
2023-04-15T12:09:07.064Z,1.95
2023-04-15T12:14:28.818Z,1.80
2023-04-15T12:19:38.453Z,2.05
2023-04-15T12:24:42.688Z,1.42
2023-04-15T12:29:45.210Z,2.20
2023-04-15T12:34:51.932Z,1.92
2023-04-15T12:39:54.685Z,2.40
2023-04-15T12:44:57.289Z,1.40
2023-04-15T12:49:59.638Z,2.35
2023-04-15T12:55:02.064Z,1.30
2023-04-15T13:00:08.615Z,1.73
2023-04-15T13:05:11.398Z,1.63
2023-04-15T13:10:13.801Z,1.83
2023-04-15T13:15:16.337Z,1.23
2023-04-15T13:20:18.882Z,1.45
2023-04-15T13:25:21.350Z,2.13
2023-04-15T13:30:23.915Z,1.30
2023-04-15T13:35:26.611Z,1.70
2023-04-15T13:40:29.124Z,1.55
2023-04-15T13:45:32.127Z,2.10
2023-04-15T13:50:34.580Z,1.90
2023-04-15T13:55:39.145Z,1.85
2023-04-15T14:00:41.722Z,1.83
2023-04-15T14:05:44.973Z,1.55
2023-04-15T14:10:48.773Z,2.50
2023-04-15T14:15:51.213Z,1.70
2023-04-15T14:20:53.862Z,1.65
2023-04-15T14:25:56.426Z,2.45
2023-04-15T14:30:58.792Z,1.30
2023-04-15T14:36:01.240Z,1.60
2023-04-15T14:41:03.681Z,1.50
2023-04-15T14:46:07.052Z,1.27
2023-04-15T14:51:09.419Z,1.90
2023-04-15T14:56:12.140Z,1.45
2023-04-15T15:01:14.540Z,1.70
2023-04-15T15:06:17.067Z,1.55
2023-04-15T15:11:19.422Z,1.63
2023-04-15T15:16:21.866Z,1.50
2023-04-15T15:21:24.381Z,1.48
2023-04-15T15:26:28.369Z,1.30
2023-04-15T15:31:30.896Z,1.10
2023-04-15T15:36:33.317Z,0.95
2023-04-15T15:41:36.847Z,1.05
2023-04-15T15:46:39.352Z,1.50
2023-04-15T15:51:41.942Z,1.83
2023-04-15T15:56:44.399Z,1.60
2023-04-15T16:01:46.944Z,1.30
2023-04-15T16:06:49.518Z,1.55
2023-04-15T16:11:51.970Z,1.23
2023-04-15T16:16:54.450Z,2.22
2023-04-15T16:21:57.272Z,2.20
2023-04-15T16:26:59.682Z,1.80
2023-04-15T16:32:02.154Z,1.02
2023-04-15T16:37:04.874Z,1.20
2023-04-15T16:42:07.766Z,1.08
2023-04-15T16:47:12.245Z,1.75
2023-04-15T16:52:14.728Z,1.10
2023-04-15T16:57:17.097Z,1.55
2023-04-15T17:02:20.871Z,1.30
2023-04-15T17:07:23.364Z,1.60
2023-04-15T17:12:25.956Z,1.70
2023-04-15T17:17:28.433Z,1.02
2023-04-15T17:22:31.071Z,1.50
2023-04-15T17:27:34.033Z,1.30
2023-04-15T17:32:44.999Z,0.93
2023-04-15T17:38:07.344Z,1.38
2023-04-15T17:43:29.709Z,0.90
2023-04-15T17:48:52.023Z,1.60
2023-04-15T17:54:14.289Z,1.05
2023-04-15T17:59:36.648Z,1.52
2023-04-15T18:04:59.164Z,1.13
2023-04-15T18:10:22.254Z,1.00
2023-04-15T18:15:46.259Z,0.88
2023-04-15T18:21:11.033Z,1.35
2023-04-15T18:26:14.814Z,1.30
2023-04-15T18:31:17.396Z,1.33
2023-04-15T18:36:19.977Z,1.13
2023-04-15T18:41:22.716Z,1.10
2023-04-15T18:46:25.333Z,1.33
2023-04-15T18:51:28.024Z,1.52
2023-04-15T18:56:34.000Z,1.17
2023-04-15T19:01:36.956Z,1.52
2023-04-15T19:06:39.508Z,1.30
2023-04-15T19:11:42.304Z,1.35
2023-04-15T19:16:44.861Z,1.27
2023-04-15T19:21:50.301Z,1.02
2023-04-15T19:26:52.765Z,0.90
2023-04-15T19:31:55.601Z,1.30
2023-04-15T19:36:58.090Z,1.25
2023-04-15T19:42:00.549Z,1.42
2023-04-15T19:47:03.073Z,1.25
2023-04-15T19:52:05.541Z,1.90
2023-04-15T19:57:07.923Z,1.20
2023-04-15T20:02:10.403Z,1.95
2023-04-15T20:07:12.896Z,1.58
2023-04-15T20:12:49.233Z,1.30
2023-04-15T20:17:37.999Z,1.70
2023-04-15T20:22:40.513Z,1.98
2023-04-15T20:27:42.832Z,1.67
2023-04-15T20:32:45.260Z,1.50
2023-04-15T20:37:49.219Z,1.45
2023-04-15T20:42:51.838Z,1.38
2023-04-15T20:47:55.542Z,1.65
2023-04-15T20:52:58.029Z,1.65
2023-04-15T20:58:00.584Z,1.40
2023-04-15T21:03:03.166Z,1.73
2023-04-15T21:08:06.205Z,2.15
2023-04-15T21:13:08.700Z,1.73
2023-04-15T21:18:11.154Z,2.25
2023-04-15T21:23:13.529Z,2.70
2023-04-15T21:28:15.874Z,2.85
2023-04-15T21:33:20.611Z,2.25
2023-04-15T21:38:23.585Z,1.98
2023-04-15T21:43:26.214Z,2.80
2023-04-15T21:48:28.608Z,2.78
2023-04-15T21:53:31.051Z,2.90
2023-04-15T21:58:33.404Z,1.98
2023-04-15T22:11:28.788Z,1.33
2023-04-15T22:16:31.448Z,1.90
2023-04-15T22:21:33.852Z,2.20
2023-04-15T22:26:36.209Z,1.80
2023-04-15T22:31:39.852Z,1.70
2023-04-15T22:36:42.284Z,1.90
2023-04-15T22:41:48.212Z,2.25
2023-04-15T22:46:53.405Z,1.75
2023-04-15T22:51:56.223Z,2.00
2023-04-15T22:56:58.775Z,2.00
2023-04-15T23:02:01.308Z,2.45
2023-04-15T23:07:03.772Z,2.22
2023-04-15T23:12:06.514Z,2.33
2023-04-15T23:17:08.845Z,2.63
2023-04-15T23:22:12.404Z,2.42
2023-04-15T23:27:14.774Z,2.92
2023-04-15T23:32:17.296Z,4.05
2023-04-15T23:37:19.767Z,3.53
2023-04-15T23:42:23.528Z,3.35
2023-04-15T23:47:27.168Z,3.78
2023-04-15T23:52:29.646Z,4.13
2023-04-15T23:57:31.996Z,3.85
